Time;durP1;ratioP1;P1;durP2;ratioP2;P2;SDS_P1;SDS_P2;PMS_P1;PMS_P2;Temp;Humidity;BMP_temperature;BMP_pressure;BME280_temperature;BME280_humidity;BME280_pressure;Samples;Min_cycle;Max_cycle;Signal;HPM_P1;HPM_P2
2021/08/12 00:00:55;;;;;;;;;;;19.70;68.70;;;;;;5070479;28;20409;-73
2021/08/12 00:03:26;;;;;;;;;;;19.70;68.70;;;;;;5070654;28;20009;-73
2021/08/12 00:05:54;;;;;;;;;;;19.70;68.70;;;;;;5070788;28;19929;-73
2021/08/12 00:08:28;;;;;;;;;;;19.70;68.70;;;;;;5043386;28;20387;-73
2021/08/12 00:10:57;;;;;;;;;;;19.70;68.70;;;;;;5070699;28;19974;-73
2021/08/12 00:13:45;;;;;;;;;;;19.70;68.70;;;;;;5028811;28;19925;-73
2021/08/12 00:16:19;;;;;;;;;;;19.70;68.60;;;;;;5061703;28;20029;-73
2021/08/12 00:18:55;;;;;;;;;;;19.70;68.60;;;;;;5040357;28;20007;-73
2021/08/12 00:21:27;;;;;;;;;;;19.70;68.50;;;;;;5070181;28;20279;-73
2021/08/12 00:23:57;;;;;;;;;;;19.60;68.50;;;;;;5070567;28;19932;-73
2021/08/12 00:26:44;;;;;;;;;;;19.60;68.60;;;;;;5068738;28;19928;-73
2021/08/12 00:29:14;;;;;;;;;;;19.60;68.60;;;;;;5070094;28;20003;-73
2021/08/12 00:32:05;;;;;;;;;;;19.60;68.60;;;;;;5070462;28;19924;-73
2021/08/12 00:34:45;;;;;;;;;;;19.60;68.70;;;;;;5070106;28;19925;-73
2021/08/12 00:37:32;;;;;;;;;;;19.60;68.70;;;;;;5058766;28;19925;-74
2021/08/12 00:40:22;;;;;;;;;;;19.60;68.80;;;;;;5070362;28;19932;-74
2021/08/12 00:43:10;;;;;;;;;;;19.60;68.80;;;;;;5069318;28;19925;-73
2021/08/12 00:46:00;;;;;;;;;;;19.50;68.80;;;;;;5069670;28;19924;-73
2021/08/12 00:48:43;;;;;;;;;;;19.50;68.90;;;;;;5069787;28;19924;-73
2021/08/12 00:51:32;;;;;;;;;;;19.50;68.90;;;;;;5069625;28;19925;-73
2021/08/12 00:54:13;;;;;;;;;;;19.50;68.90;;;;;;5069543;28;19947;-73
2021/08/12 00:56:45;;;;;;;;;;;19.40;69.00;;;;;;5069831;28;20008;-73
2021/08/12 00:59:21;;;;;;;;;;;19.40;69.00;;;;;;5069598;28;19932;-74
2021/08/12 01:01:57;;;;;;;;;;;19.40;69.10;;;;;;5069854;28;20435;-73
2021/08/12 01:04:49;;;;;;;;;;;19.40;69.10;;;;;;5069095;28;19925;-73
2021/08/12 01:07:52;;;;;;;;;;;19.40;69.10;;;;;;5068649;28;19955;-73
2021/08/12 01:10:45;;;;;;;;;;;19.40;69.30;;;;;;5069466;28;19932;-73
2021/08/12 01:14:01;;;;;;;;;;;19.30;69.30;;;;;;5069408;28;20320;-73
2021/08/12 01:16:45;;;;;;;;;;;19.30;69.30;;;;;;5062355;28;19928;-73
2021/08/12 01:19:32;;;;;;;;;;;19.20;69.40;;;;;;5069684;28;20058;-73
2021/08/12 01:22:08;;;;;;;;;;;19.20;69.50;;;;;;5070334;28;19928;-73
2021/08/12 01:24:45;;;;;;;;;;;19.20;69.40;;;;;;5070040;28;19928;-73
2021/08/12 01:27:17;;;;;;;;;;;19.20;69.60;;;;;;5070126;28;19993;-73
2021/08/12 01:29:50;;;;;;;;;;;19.20;69.60;;;;;;5069596;28;19931;-73
2021/08/12 01:32:26;;;;;;;;;;;19.20;69.60;;;;;;5070201;28;19974;-73
2021/08/12 01:35:15;;;;;;;;;;;19.20;69.60;;;;;;5069553;28;19928;-73
2021/08/12 01:38:06;;;;;;;;;;;19.20;70.50;;;;;;5054840;28;20419;-73
2021/08/12 01:40:55;;;;;;;;;;;19.20;69.50;;;;;;5069540;28;19925;-73
2021/08/12 01:43:44;;;;;;;;;;;19.20;69.70;;;;;;5069698;28;19935;-73
2021/08/12 01:46:33;;;;;;;;;;;19.20;69.70;;;;;;5069244;28;20744;-73
2021/08/12 01:49:23;;;;;;;;;;;19.10;69.80;;;;;;5069434;28;19931;-73
2021/08/12 01:52:15;;;;;;;;;;;19.10;69.80;;;;;;5069517;28;19970;-73
2021/08/12 01:55:03;;;;;;;;;;;19.10;69.90;;;;;;5068837;28;19970;-73
2021/08/12 01:57:55;;;;;;;;;;;19.10;69.90;;;;;;5067988;28;19980;-73
2021/08/12 02:00:46;;;;;;;;;;;19.10;70.00;;;;;;5068645;28;20411;-73
2021/08/12 02:03:37;;;;;;;;;;;19.10;70.00;;;;;;5054290;28;19925;-73
2021/08/12 02:06:29;;;;;;;;;;;19.10;70.00;;;;;;5068453;28;19924;-73
2021/08/12 02:09:16;;;;;;;;;;;19.10;70.00;;;;;;5068345;28;19924;-73
2021/08/12 02:12:03;;;;;;;;;;;19.10;70.00;;;;;;5068604;28;19925;-73
2021/08/12 02:14:52;;;;;;;;;;;19.00;70.00;;;;;;5068141;28;19928;-73
2021/08/12 02:17:41;;;;;;;;;;;19.00;70.10;;;;;;5048064;28;20006;-73
2021/08/12 02:20:28;;;;;;;;;;;19.00;70.10;;;;;;5056168;28;20403;-73
2021/08/12 02:23:32;;;;;;;;;;;19.00;70.10;;;;;;5067937;28;19951;-73
2021/08/12 02:26:21;;;;;;;;;;;19.00;70.20;;;;;;5068391;28;19933;-73
2021/08/12 02:29:10;;;;;;;;;;;19.00;70.20;;;;;;5068419;28;19931;-73
2021/08/12 02:31:59;;;;;;;;;;;19.00;70.20;;;;;;5067747;28;19973;-73
2021/08/12 02:34:50;;;;;;;;;;;19.00;70.30;;;;;;5068249;28;19924;-73
2021/08/12 02:37:41;;;;;;;;;;;18.90;70.20;;;;;;5056932;27;19924;-73
2021/08/12 02:40:14;;;;;;;;;;;18.90;70.20;;;;;;5068604;28;19925;-73
2021/08/12 02:42:49;;;;;;;;;;;18.90;70.30;;;;;;5067997;28;19924;-73
2021/08/12 02:45:25;;;;;;;;;;;18.90;70.30;;;;;;5068246;28;19969;-73
2021/08/12 02:47:59;;;;;;;;;;;18.90;70.30;;;;;;5035440;28;19969;-73
2021/08/12 02:50:31;;;;;;;;;;;18.90;70.30;;;;;;5047879;28;19929;-73
2021/08/12 02:53:11;;;;;;;;;;;18.90;70.50;;;;;;5051449;28;19935;-73
2021/08/12 02:56:02;;;;;;;;;;;18.90;70.50;;;;;;5051651;28;19925;-73
2021/08/12 02:58:48;;;;;;;;;;;19.00;70.50;;;;;;5040527;28;20058;-73
2021/08/12 03:01:38;;;;;;;;;;;19.00;70.40;;;;;;5050809;28;19925;-73
2021/08/12 03:04:28;;;;;;;;;;;19.00;70.50;;;;;;5051215;28;19925;-73
2021/08/12 03:07:19;;;;;;;;;;;19.00;70.50;;;;;;5040130;28;19929;-73
2021/08/12 03:10:08;;;;;;;;;;;18.90;70.50;;;;;;5050768;28;20299;-73
2021/08/12 03:12:59;;;;;;;;;;;18.90;70.70;;;;;;5036525;28;19925;-73
2021/08/12 03:15:53;;;;;;;;;;;18.90;70.90;;;;;;5039880;27;19939;-73
2021/08/12 03:18:37;;;;;;;;;;;18.80;71.10;;;;;;5050923;28;20016;-73
2021/08/12 03:21:24;;;;;;;;;;;18.80;71.10;;;;;;5052114;28;19925;-73
2021/08/12 03:24:12;;;;;;;;;;;18.80;71.10;;;;;;5037122;28;20395;-73
2021/08/12 03:27:01;;;;;;;;;;;18.90;71.00;;;;;;5051126;28;20478;-73
2021/08/12 03:29:50;;;;;;;;;;;18.90;70.90;;;;;;5035773;28;20433;-73
2021/08/12 03:32:40;;;;;;;;;;;18.90;70.90;;;;;;5050746;28;20020;-73
2021/08/12 03:35:27;;;;;;;;;;;18.90;71.00;;;;;;5050922;28;19928;-73
2021/08/12 03:38:20;;;;;;;;;;;18.90;71.00;;;;;;5042508;28;19928;-73
2021/08/12 03:41:10;;;;;;;;;;;18.90;71.00;;;;;;5036553;28;19952;-73
2021/08/12 03:44:03;;;;;;;;;;;18.90;71.00;;;;;;5050002;28;19925;-73
2021/08/12 03:46:50;;;;;;;;;;;18.90;71.00;;;;;;5051319;28;19925;-73
2021/08/12 03:49:33;;;;;;;;;;;18.80;71.10;;;;;;5050076;28;19921;-73
2021/08/12 03:52:21;;;;;;;;;;;18.80;71.10;;;;;;5047865;28;19933;-73
2021/08/12 03:55:14;;;;;;;;;;;18.80;71.30;;;;;;5048251;28;19925;-73
2021/08/12 03:58:23;;;;;;;;;;;18.80;71.40;;;;;;5035493;28;19928;-73
2021/08/12 04:01:15;;;;;;;;;;;18.80;71.70;;;;;;5047981;28;19932;-73
2021/08/12 04:04:10;;;;;;;;;;;18.80;71.20;;;;;;5049435;28;19929;-73
2021/08/12 04:07:03;;;;;;;;;;;18.80;71.40;;;;;;5050068;28;20016;-73
2021/08/12 04:09:37;;;;;;;;;;;18.70;71.60;;;;;;5017453;28;19925;-73
2021/08/12 04:12:19;;;;;;;;;;;18.70;71.50;;;;;;5049561;28;19925;-73
2021/08/12 04:14:46;;;;;;;;;;;18.70;71.60;;;;;;5050354;28;19925;-73
2021/08/12 04:17:26;;;;;;;;;;;18.70;71.70;;;;;;5032406;27;19929;-73
2021/08/12 04:20:08;;;;;;;;;;;18.70;71.70;;;;;;5050096;28;19947;-73
2021/08/12 04:22:50;;;;;;;;;;;18.70;71.90;;;;;;5049326;28;19960;-73
2021/08/12 04:25:27;;;;;;;;;;;18.70;71.80;;;;;;5032728;28;20299;-73
2021/08/12 04:27:56;;;;;;;;;;;18.70;71.90;;;;;;5050540;28;19936;-73
2021/08/12 04:30:38;;;;;;;;;;;18.70;71.90;;;;;;5036569;28;19925;-73
2021/08/12 04:33:07;;;;;;;;;;;18.70;71.80;;;;;;5050340;28;19924;-73
2021/08/12 04:35:39;;;;;;;;;;;18.70;71.90;;;;;;5050056;28;20015;-73
2021/08/12 04:38:05;;;;;;;;;;;18.70;71.90;;;;;;5056545;28;19932;-73
2021/08/12 04:40:32;;;;;;;;;;;18.70;71.90;;;;;;5049808;28;19932;-73
2021/08/12 04:42:58;;;;;;;;;;;18.70;72.10;;;;;;5049781;28;20376;-73
2021/08/12 04:45:24;;;;;;;;;;;18.70;72.10;;;;;;5050101;28;20388;-73
2021/08/12 04:47:50;;;;;;;;;;;18.70;72.00;;;;;;5049920;28;19931;-73
2021/08/12 04:50:17;;;;;;;;;;;18.70;72.00;;;;;;5049793;28;19924;-73
2021/08/12 04:52:43;;;;;;;;;;;18.70;72.00;;;;;;5050167;28;20368;-73
2021/08/12 04:55:09;;;;;;;;;;;18.70;72.00;;;;;;5049936;28;19925;-73
2021/08/12 04:57:36;;;;;;;;;;;18.70;72.10;;;;;;5049443;28;19973;-73
2021/08/12 05:00:03;;;;;;;;;;;18.70;72.20;;;;;;5031910;28;19928;-73
2021/08/12 05:02:29;;;;;;;;;;;18.70;72.20;;;;;;5049682;28;19936;-73
2021/08/12 05:04:55;;;;;;;;;;;18.60;72.20;;;;;;5049476;28;19929;-73
2021/08/12 05:07:21;;;;;;;;;;;18.70;72.30;;;;;;5049798;28;19939;-73
2021/08/12 05:09:47;;;;;;;;;;;18.60;72.20;;;;;;5049525;28;19932;-73
2021/08/12 05:12:18;;;;;;;;;;;18.60;72.40;;;;;;5048387;28;19947;-73
2021/08/12 05:14:44;;;;;;;;;;;18.60;72.40;;;;;;5049664;28;19932;-73
2021/08/12 05:17:10;;;;;;;;;;;18.60;72.40;;;;;;5049141;28;19979;-73
2021/08/12 05:19:37;;;;;;;;;;;18.50;72.20;;;;;;5049167;28;20348;-73
2021/08/12 05:22:03;;;;;;;;;;;18.50;72.20;;;;;;5049677;28;19925;-73
2021/08/12 05:24:29;;;;;;;;;;;18.50;72.30;;;;;;5049431;28;19947;-73
2021/08/12 05:26:56;;;;;;;;;;;18.50;72.30;;;;;;5049030;28;19936;-75
2021/08/12 05:29:22;;;;;;;;;;;18.50;72.50;;;;;;5049947;28;20057;-75
2021/08/12 05:31:48;;;;;;;;;;;18.40;72.50;;;;;;5049114;28;19940;-75
2021/08/12 05:34:14;;;;;;;;;;;18.40;72.50;;;;;;5049665;28;19951;-73
2021/08/12 05:36:40;;;;;;;;;;;18.40;72.60;;;;;;5055671;28;19924;-73
2021/08/12 05:39:06;;;;;;;;;;;18.50;72.90;;;;;;5049171;28;19968;-73
2021/08/12 05:41:33;;;;;;;;;;;18.40;72.90;;;;;;5049016;28;19925;-73
2021/08/12 05:43:59;;;;;;;;;;;18.50;73.00;;;;;;5048949;28;19986;-73
2021/08/12 05:46:25;;;;;;;;;;;18.50;73.00;;;;;;5049121;28;19928;-73
2021/08/12 05:48:51;;;;;;;;;;;18.50;73.10;;;;;;5048971;28;19963;-73
2021/08/12 05:51:17;;;;;;;;;;;18.50;73.10;;;;;;5048948;28;20460;-73
2021/08/12 05:53:43;;;;;;;;;;;18.50;73.20;;;;;;5048986;28;19925;-72
2021/08/12 05:56:09;;;;;;;;;;;18.50;73.10;;;;;;5048658;28;20050;-75
2021/08/12 05:58:38;;;;;;;;;;;18.60;73.10;;;;;;5048986;28;20368;-75
2021/08/12 06:01:07;;;;;;;;;;;18.60;73.10;;;;;;5048600;28;20056;-75
2021/08/12 06:03:34;;;;;;;;;;;18.70;73.00;;;;;;5049050;28;19925;-73
2021/08/12 06:06:00;;;;;;;;;;;18.70;73.00;;;;;;5048720;28;19928;-75
2021/08/12 06:08:26;;;;;;;;;;;18.80;72.90;;;;;;5048666;28;19970;-73
2021/08/12 06:10:52;;;;;;;;;;;18.80;72.80;;;;;;5048943;28;19981;-73
2021/08/12 06:13:18;;;;;;;;;;;18.80;72.80;;;;;;5048838;28;20280;-73
2021/08/12 06:15:44;;;;;;;;;;;18.80;72.60;;;;;;5048260;28;20400;-72
2021/08/12 06:18:11;;;;;;;;;;;18.90;72.70;;;;;;5030419;28;19925;-73
2021/08/12 06:20:38;;;;;;;;;;;18.90;72.60;;;;;;5049004;28;19932;-73
2021/08/12 06:23:08;;;;;;;;;;;19.00;72.50;;;;;;5048980;28;19924;-73
2021/08/12 06:25:34;;;;;;;;;;;19.00;72.50;;;;;;5052227;28;19932;-73
2021/08/12 06:28:01;;;;;;;;;;;19.10;72.40;;;;;;5052434;28;20007;-72
2021/08/12 06:30:27;;;;;;;;;;;19.10;72.40;;;;;;5052333;28;20372;-73
2021/08/12 06:32:53;;;;;;;;;;;19.20;72.40;;;;;;5052121;28;19925;-73
2021/08/12 06:35:20;;;;;;;;;;;19.30;72.30;;;;;;5052180;28;19929;-73
2021/08/12 06:37:48;;;;;;;;;;;19.30;72.20;;;;;;5058224;28;19929;-73
2021/08/12 06:40:15;;;;;;;;;;;19.40;72.00;;;;;;5051605;28;19925;-73
2021/08/12 06:42:41;;;;;;;;;;;19.50;71.90;;;;;;5052618;28;19925;-73
2021/08/12 06:45:08;;;;;;;;;;;19.70;71.60;;;;;;5051653;28;20395;-73
2021/08/12 06:47:35;;;;;;;;;;;19.70;71.30;;;;;;5051951;28;19960;-73
2021/08/12 06:50:02;;;;;;;;;;;19.90;71.20;;;;;;5052151;28;19932;-73
2021/08/12 06:52:28;;;;;;;;;;;20.00;70.70;;;;;;5051690;28;19925;-72
2021/08/12 06:54:55;;;;;;;;;;;20.20;70.50;;;;;;5051818;28;19925;-73
2021/08/12 06:57:21;;;;;;;;;;;20.30;70.20;;;;;;5051512;28;19924;-72
2021/08/12 06:59:47;;;;;;;;;;;20.40;69.70;;;;;;5051579;28;19925;-73
2021/08/12 07:02:13;;;;;;;;;;;20.40;69.20;;;;;;5052128;28;20280;-72
2021/08/12 07:04:39;;;;;;;;;;;20.40;68.90;;;;;;5051620;28;19936;-73
2021/08/12 07:07:06;;;;;;;;;;;20.40;69.10;;;;;;5051087;28;20036;-72
2021/08/12 07:09:32;;;;;;;;;;;20.40;69.00;;;;;;5051143;28;20416;-73
2021/08/12 07:11:58;;;;;;;;;;;20.40;69.00;;;;;;5051818;28;19924;-73
2021/08/12 07:14:24;;;;;;;;;;;20.40;69.20;;;;;;5051403;28;19925;-72
2021/08/12 07:16:50;;;;;;;;;;;20.40;69.30;;;;;;5051498;28;19925;-72
2021/08/12 07:19:16;;;;;;;;;;;20.30;69.30;;;;;;5051435;28;19932;-72
2021/08/12 07:21:42;;;;;;;;;;;20.30;69.40;;;;;;5050843;28;20033;-72
2021/08/12 07:24:09;;;;;;;;;;;20.40;69.60;;;;;;5051395;28;20386;-72
2021/08/12 07:26:35;;;;;;;;;;;20.40;69.60;;;;;;5051021;28;20379;-72
2021/08/12 07:29:02;;;;;;;;;;;20.40;69.70;;;;;;5051269;28;19925;-72
2021/08/12 07:31:28;;;;;;;;;;;20.40;69.80;;;;;;5051138;28;19925;-72
2021/08/12 07:33:54;;;;;;;;;;;20.50;69.90;;;;;;5050932;28;20376;-72
2021/08/12 07:36:20;;;;;;;;;;;20.60;70.00;;;;;;5054338;28;19924;-72
2021/08/12 07:38:47;;;;;;;;;;;20.80;70.00;;;;;;5052844;28;19970;-73
2021/08/12 07:41:13;;;;;;;;;;;21.00;69.70;;;;;;5050772;28;19986;-72
2021/08/12 07:43:40;;;;;;;;;;;21.20;69.00;;;;;;5050702;28;20295;-72
2021/08/12 07:46:06;;;;;;;;;;;21.30;68.40;;;;;;5050994;28;19975;-72
2021/08/12 07:48:33;;;;;;;;;;;21.30;67.90;;;;;;5050880;28;19925;-72
2021/08/12 07:50:59;;;;;;;;;;;21.20;67.70;;;;;;5050528;28;19925;-72
2021/08/12 07:53:25;;;;;;;;;;;21.20;67.70;;;;;;5033203;28;19931;-72
2021/08/12 07:55:51;;;;;;;;;;;21.10;68.20;;;;;;5050758;28;20319;-72
2021/08/12 07:58:17;;;;;;;;;;;21.10;67.80;;;;;;5050775;28;19932;-72
2021/08/12 08:00:43;;;;;;;;;;;21.10;67.90;;;;;;5051032;28;19971;-72
2021/08/12 08:03:09;;;;;;;;;;;21.00;68.00;;;;;;5050404;28;19925;-72
2021/08/12 08:05:36;;;;;;;;;;;21.00;68.10;;;;;;5050486;28;19932;-73
2021/08/12 08:08:02;;;;;;;;;;;20.90;68.20;;;;;;5050583;28;20005;-72
2021/08/12 08:10:28;;;;;;;;;;;20.90;68.30;;;;;;5032726;28;19925;-72
2021/08/12 08:12:55;;;;;;;;;;;20.90;68.50;;;;;;5050603;28;19960;-72
2021/08/12 08:15:21;;;;;;;;;;;20.90;68.60;;;;;;5050407;28;19925;-73
2021/08/12 08:17:47;;;;;;;;;;;20.90;68.60;;;;;;5106862;27;20370;-72
2021/08/12 08:20:14;;;;;;;;;;;20.90;68.50;;;;;;5134211;27;20002;-72
2021/08/12 08:22:41;;;;;;;;;;;20.90;68.50;;;;;;5134268;27;20310;-72
2021/08/12 08:25:08;;;;;;;;;;;20.90;68.50;;;;;;5133775;27;19937;-72
2021/08/12 08:27:34;;;;;;;;;;;21.00;68.50;;;;;;5134813;27;19930;-72
2021/08/12 08:30:00;;;;;;;;;;;21.10;68.70;;;;;;5134377;27;19928;-72
2021/08/12 08:32:26;;;;;;;;;;;21.10;68.60;;;;;;5134342;27;20399;-72
2021/08/12 08:34:53;;;;;;;;;;;21.10;68.60;;;;;;5134151;27;19930;-72
2021/08/12 08:37:19;;;;;;;;;;;21.20;68.70;;;;;;5107679;27;19934;-72
2021/08/12 08:39:45;;;;;;;;;;;21.20;68.40;;;;;;5133224;27;20423;-72
2021/08/12 08:42:13;;;;;;;;;;;21.20;68.30;;;;;;5134155;27;19923;-72
2021/08/12 08:44:40;;;;;;;;;;;21.30;68.50;;;;;;5134327;27;19934;-72
2021/08/12 08:47:09;;;;;;;;;;;21.30;69.30;;;;;;5133214;27;19931;-72
2021/08/12 08:49:37;;;;;;;;;;;21.50;68.40;;;;;;5133491;27;20224;-72
2021/08/12 08:52:04;;;;;;;;;;;21.60;68.30;;;;;;5134115;27;19927;-72
2021/08/12 08:54:31;;;;;;;;;;;21.70;68.10;;;;;;5133720;27;19931;-72
2021/08/12 08:56:57;;;;;;;;;;;21.80;67.90;;;;;;5133971;27;19923;-72
2021/08/12 08:59:24;;;;;;;;;;;21.90;67.30;;;;;;5133854;27;19923;-72
2021/08/12 09:01:51;;;;;;;;;;;22.00;66.90;;;;;;5133583;27;20443;-72
2021/08/12 09:04:17;;;;;;;;;;;22.00;66.80;;;;;;5133407;27;20459;-72
2021/08/12 09:06:43;;;;;;;;;;;22.10;66.30;;;;;;5134095;27;20402;-72
2021/08/12 09:09:09;;;;;;;;;;;22.10;66.00;;;;;;5133872;27;20375;-72
2021/08/12 09:11:36;;;;;;;;;;;22.00;66.10;;;;;;5133542;27;20405;-72
2021/08/12 09:14:22;;;;;;;;;;;22.00;66.10;;;;;;5133688;27;19931;-72
2021/08/12 09:16:48;;;;;;;;;;;22.00;66.10;;;;;;5068951;28;20089;-73
2021/08/12 09:19:21;;;;;;;;;;;22.10;66.70;;;;;;5049379;28;19929;-72
2021/08/12 09:21:52;;;;;;;;;;;22.60;66.50;;;;;;5049764;28;19925;-72
2021/08/12 09:24:18;;;;;;;;;;;23.50;65.00;;;;;;5049680;28;19981;-72
2021/08/12 09:26:45;;;;;;;;;;;24.30;63.10;;;;;;5049598;28;19924;-72
2021/08/12 09:29:24;;;;;;;;;;;24.60;60.70;;;;;;5049547;28;19929;-72
2021/08/12 09:31:55;;;;;;;;;;;24.70;59.50;;;;;;5049516;28;19929;-72
2021/08/12 09:34:21;;;;;;;;;;;25.00;58.80;;;;;;5048995;28;19925;-72
2021/08/12 09:36:47;;;;;;;;;;;25.40;58.30;;;;;;5049263;28;19931;-72
2021/08/12 09:39:13;;;;;;;;;;;26.20;58.00;;;;;;5049673;28;19975;-72
2021/08/12 09:41:45;;;;;;;;;;;27.30;57.00;;;;;;5049165;28;19925;-73
2021/08/12 09:44:31;;;;;;;;;;;28.50;54.80;;;;;;5036025;28;19925;-73
2021/08/12 09:46:57;;;;;;;;;;;29.50;52.50;;;;;;5048862;28;19925;-72
2021/08/12 09:49:24;;;;;;;;;;;30.60;50.00;;;;;;5049727;28;19936;-73
2021/08/12 09:51:50;;;;;;;;;;;31.30;46.60;;;;;;5049173;28;19928;-73
2021/08/12 09:54:29;;;;;;;;;;;31.90;45.90;;;;;;5030918;28;20057;-73
2021/08/12 09:56:55;;;;;;;;;;;32.30;44.30;;;;;;5049566;28;20322;-73
2021/08/12 09:59:22;;;;;;;;;;;32.80;44.00;;;;;;5051148;28;20439;-73
2021/08/12 10:02:08;;;;;;;;;;;33.30;43.00;;;;;;5052379;28;19932;-74
2021/08/12 10:04:34;;;;;;;;;;;33.60;41.40;;;;;;5052049;28;19932;-73
2021/08/12 10:07:00;;;;;;;;;;;34.00;40.30;;;;;;5052563;28;19932;-73
2021/08/12 10:09:38;;;;;;;;;;;34.10;36.90;;;;;;5052195;28;19925;-73
2021/08/12 10:12:04;;;;;;;;;;;33.90;38.00;;;;;;5052637;28;19998;-73
2021/08/12 10:14:30;;;;;;;;;;;34.00;39.10;;;;;;5052097;28;19928;-73
2021/08/12 10:16:57;;;;;;;;;;;34.30;38.90;;;;;;5051850;27;19928;-73
2021/08/12 10:19:23;;;;;;;;;;;34.70;38.80;;;;;;5052596;28;19948;-72
2021/08/12 10:21:49;;;;;;;;;;;35.00;38.00;;;;;;5052072;28;19924;-73
2021/08/12 10:24:15;;;;;;;;;;;35.00;37.60;;;;;;5052145;28;20407;-72
2021/08/12 10:26:44;;;;;;;;;;;34.80;37.40;;;;;;5052202;28;19986;-72
2021/08/12 10:29:12;;;;;;;;;;;34.20;37.00;;;;;;5052013;28;19929;-72
2021/08/12 10:31:39;;;;;;;;;;;33.40;37.60;;;;;;5051928;28;19931;-73
2021/08/12 10:34:05;;;;;;;;;;;32.50;38.40;;;;;;5052067;28;19981;-72
2021/08/12 10:36:31;;;;;;;;;;;31.50;39.90;;;;;;5052128;28;20160;-73
2021/08/12 10:38:58;;;;;;;;;;;30.90;41.90;;;;;;5051818;28;20376;-72
2021/08/12 10:41:25;;;;;;;;;;;30.60;42.70;;;;;;5052133;28;20016;-73
2021/08/12 10:43:53;;;;;;;;;;;30.30;43.60;;;;;;5051990;28;19931;-73
2021/08/12 10:46:39;;;;;;;;;;;30.10;44.80;;;;;;5051925;28;19970;-72
2021/08/12 10:49:24;;;;;;;;;;;29.90;45.20;;;;;;5051839;28;19924;-72
2021/08/12 10:51:58;;;;;;;;;;;29.70;46.00;;;;;;5051002;28;19929;-72
2021/08/12 10:54:24;;;;;;;;;;;29.70;46.30;;;;;;5052152;28;19929;-72
2021/08/12 10:56:50;;;;;;;;;;;29.60;46.20;;;;;;5051511;28;19925;-72
2021/08/12 10:59:33;;;;;;;;;;;29.40;46.60;;;;;;5051379;28;19929;-73
2021/08/12 11:01:59;;;;;;;;;;;29.30;46.40;;;;;;5051733;28;19936;-74
2021/08/12 11:04:45;;;;;;;;;;;29.20;46.30;;;;;;5051440;28;19925;-73
2021/08/12 11:07:31;;;;;;;;;;;29.10;46.70;;;;;;5051584;28;19975;-73
2021/08/12 11:09:57;;;;;;;;;;;29.00;46.90;;;;;;5051245;28;19954;-72
2021/08/12 11:12:43;;;;;;;;;;;28.90;47.00;;;;;;5051541;28;19966;-72
2021/08/12 11:15:10;;;;;;;;;;;28.80;47.30;;;;;;5033088;28;19925;-72
2021/08/12 11:17:52;;;;;;;;;;;28.80;48.60;;;;;;5050923;27;19925;-72
2021/08/12 11:20:28;;;;;;;;;;;28.80;48.90;;;;;;5051459;28;19925;-72
2021/08/12 11:22:54;;;;;;;;;;;28.70;49.10;;;;;;5051238;28;20364;-72
2021/08/12 11:25:41;;;;;;;;;;;28.70;49.30;;;;;;5051424;28;19925;-73
2021/08/12 11:28:27;;;;;;;;;;;28.70;48.80;;;;;;5050690;28;20306;-73
2021/08/12 11:30:53;;;;;;;;;;;28.70;48.60;;;;;;5051092;28;19925;-72
2021/08/12 11:33:29;;;;;;;;;;;28.50;49.00;;;;;;5051392;28;19932;-73
2021/08/12 11:36:08;;;;;;;;;;;28.40;49.40;;;;;;5051235;27;19924;-72
2021/08/12 11:38:35;;;;;;;;;;;28.40;49.50;;;;;;5050683;27;20414;-72
2021/08/12 11:41:01;;;;;;;;;;;28.30;48.80;;;;;;5050960;28;20046;-72
2021/08/12 11:43:27;;;;;;;;;;;28.20;47.60;;;;;;5050799;28;20466;-72
2021/08/12 11:45:55;;;;;;;;;;;28.20;48.50;;;;;;5050958;28;20373;-72
2021/08/12 11:48:22;;;;;;;;;;;28.20;49.10;;;;;;5050643;28;19996;-72
2021/08/12 11:50:48;;;;;;;;;;;28.20;49.50;;;;;;5051071;28;20284;-73
2021/08/12 11:53:15;;;;;;;;;;;28.30;50.00;;;;;;5050889;28;19943;-72
2021/08/12 11:55:42;;;;;;;;;;;28.30;49.50;;;;;;5050642;28;19929;-72
2021/08/12 11:58:08;;;;;;;;;;;28.30;49.20;;;;;;5050596;28;19968;-73
2021/08/12 12:00:34;;;;;;;;;;;28.30;49.10;;;;;;5050664;28;19929;-72
2021/08/12 12:03:02;;;;;;;;;;;28.40;49.00;;;;;;5050581;28;20300;-72
2021/08/12 12:05:34;;;;;;;;;;;28.50;47.70;;;;;;5050938;28;19973;-73
2021/08/12 12:08:05;;;;;;;;;;;28.40;44.80;;;;;;5050636;28;19933;-72
2021/08/12 12:10:33;;;;;;;;;;;28.40;45.10;;;;;;5050544;28;19929;-72
2021/08/12 12:13:09;;;;;;;;;;;28.30;45.20;;;;;;5050823;28;19925;-73
2021/08/12 12:15:37;;;;;;;;;;;28.10;44.70;;;;;;5050366;28;19925;-72
2021/08/12 12:18:03;;;;;;;;;;;27.90;45.40;;;;;;5050595;28;19925;-72
2021/08/12 12:20:30;;;;;;;;;;;27.80;46.20;;;;;;5050399;28;19935;-72
2021/08/12 12:22:59;;;;;;;;;;;27.70;46.50;;;;;;5049829;28;19932;-73
2021/08/12 12:25:27;;;;;;;;;;;27.70;47.10;;;;;;5050466;28;19991;-72
2021/08/12 12:27:54;;;;;;;;;;;27.60;47.60;;;;;;5050091;28;19924;-73
2021/08/12 12:30:22;;;;;;;;;;;27.70;48.00;;;;;;5050199;28;20364;-73
2021/08/12 12:33:07;;;;;;;;;;;27.70;48.50;;;;;;5050453;28;19973;-73
2021/08/12 12:35:36;;;;;;;;;;;27.60;48.70;;;;;;5050148;28;20416;-72
2021/08/12 12:38:04;;;;;;;;;;;27.50;49.10;;;;;;5050083;28;19931;-73
2021/08/12 12:40:32;;;;;;;;;;;27.50;49.80;;;;;;5049959;28;19929;-72
2021/08/12 12:43:00;;;;;;;;;;;27.40;48.50;;;;;;5050154;28;19925;-72
2021/08/12 12:45:27;;;;;;;;;;;27.30;48.10;;;;;;5050071;28;19988;-72
2021/08/12 12:48:04;;;;;;;;;;;27.00;49.20;;;;;;5050056;28;19929;-72
2021/08/12 12:50:39;;;;;;;;;;;26.90;50.10;;;;;;5031958;28;20016;-73
2021/08/12 12:53:05;;;;;;;;;;;26.80;50.20;;;;;;5049799;28;19925;-72
2021/08/12 12:55:35;;;;;;;;;;;26.80;51.30;;;;;;5049460;28;19932;-72
2021/08/12 12:58:14;;;;;;;;;;;26.90;51.70;;;;;;5050038;28;19932;-73
2021/08/12 13:00:40;;;;;;;;;;;26.90;51.00;;;;;;5049928;28;19925;-72
2021/08/12 13:03:06;;;;;;;;;;;27.00;51.30;;;;;;5049962;28;19935;-72
2021/08/12 13:05:54;;;;;;;;;;;27.00;50.70;;;;;;5049857;28;20308;-72
2021/08/12 13:08:21;;;;;;;;;;;27.00;49.90;;;;;;5103483;27;19923;-73
2021/08/12 13:11:08;;;;;;;;;;;27.00;49.60;;;;;;5154376;27;19930;-72
2021/08/12 13:13:36;;;;;;;;;;;27.00;50.10;;;;;;5134851;27;19927;-73
2021/08/12 13:16:03;;;;;;;;;;;26.90;50.20;;;;;;5153880;27;20371;-72
2021/08/12 13:18:48;;;;;;;;;;;26.80;50.20;;;;;;5153329;27;19923;-73
2021/08/12 13:21:24;;;;;;;;;;;26.80;49.80;;;;;;5153860;27;20335;-73
2021/08/12 13:23:54;;;;;;;;;;;26.70;49.70;;;;;;5140659;27;19934;-73
2021/08/12 13:26:46;;;;;;;;;;;26.70;49.80;;;;;;5153588;27;19930;-72
2021/08/12 13:29:24;;;;;;;;;;;26.70;50.50;;;;;;5140512;27;19923;-73
2021/08/12 13:31:51;;;;;;;;;;;26.70;50.30;;;;;;5153928;27;19923;-73
2021/08/12 13:34:18;;;;;;;;;;;26.60;50.90;;;;;;5153203;27;19923;-72
2021/08/12 13:36:45;;;;;;;;;;;26.60;51.30;;;;;;5153768;27;20290;-73
2021/08/12 13:39:11;;;;;;;;;;;26.70;51.80;;;;;;5154042;27;19927;-72
2021/08/12 13:41:56;;;;;;;;;;;26.70;51.10;;;;;;5154048;27;20397;-72
2021/08/12 13:44:24;;;;;;;;;;;26.70;51.90;;;;;;5141734;27;19923;-73
2021/08/12 13:46:51;;;;;;;;;;;26.60;51.20;;;;;;5153006;27;19952;-72
2021/08/12 13:49:17;;;;;;;;;;;26.60;51.40;;;;;;5153314;27;19923;-79
2021/08/12 13:51:43;;;;;;;;;;;26.60;51.50;;;;;;5153755;27;19930;-73
2021/08/12 13:54:10;;;;;;;;;;;26.60;52.50;;;;;;5153380;27;19923;-74
2021/08/12 13:56:36;;;;;;;;;;;26.60;53.10;;;;;;5153620;27;20056;-73
2021/08/12 13:59:02;;;;;;;;;;;26.70;53.80;;;;;;5153609;27;19923;-73
2021/08/12 14:01:29;;;;;;;;;;;26.80;53.90;;;;;;5153784;27;19947;-73
2021/08/12 14:03:55;;;;;;;;;;;26.90;52.30;;;;;;5153183;27;19930;-72
2021/08/12 14:06:21;;;;;;;;;;;26.90;51.30;;;;;;5153543;27;19927;-74
2021/08/12 14:08:47;;;;;;;;;;;27.00;51.60;;;;;;5153512;27;20014;-73
2021/08/12 14:11:13;;;;;;;;;;;26.90;51.40;;;;;;5153614;27;19930;-73
2021/08/12 14:13:40;;;;;;;;;;;26.90;51.00;;;;;;5153715;27;19923;-73
2021/08/12 14:16:06;;;;;;;;;;;26.90;51.20;;;;;;5153228;27;20290;-73
2021/08/12 14:18:33;;;;;;;;;;;27.00;51.60;;;;;;5153278;27;20417;-74
2021/08/12 14:21:00;;;;;;;;;;;27.00;50.60;;;;;;5153489;27;19930;-74
2021/08/12 14:23:26;;;;;;;;;;;27.00;50.50;;;;;;5152844;27;19969;-73
2021/08/12 14:25:52;;;;;;;;;;;27.00;50.30;;;;;;5153679;27;19930;-73
2021/08/12 14:28:19;;;;;;;;;;;27.00;49.90;;;;;;5153551;27;19923;-72
2021/08/12 14:30:45;;;;;;;;;;;27.00;50.10;;;;;;5153618;27;19927;-73
2021/08/12 14:33:11;;;;;;;;;;;27.00;49.30;;;;;;5153225;27;19926;-73
2021/08/12 14:35:37;;;;;;;;;;;27.00;49.40;;;;;;5153346;27;19927;-73
2021/08/12 14:38:03;;;;;;;;;;;27.00;49.50;;;;;;5153386;27;19923;-72
2021/08/12 14:40:31;;;;;;;;;;;27.00;49.40;;;;;;5153049;27;19967;-73
2021/08/12 14:42:58;;;;;;;;;;;27.00;49.50;;;;;;5152635;27;19923;-73
2021/08/12 14:45:24;;;;;;;;;;;27.00;49.40;;;;;;5137278;27;20420;-73
2021/08/12 14:47:50;;;;;;;;;;;27.00;49.10;;;;;;5156897;27;19934;-73
2021/08/12 14:50:16;;;;;;;;;;;27.00;49.40;;;;;;5156995;27;20014;-73